Time;durP1;ratioP1;P1;durP2;ratioP2;P2;SDS_P1;SDS_P2;PMS_P1;PMS_P2;Temp;Humidity;BMP_temperature;BMP_pressure;BME280_temperature;BME280_humidity;BME280_pressure;Samples;Min_cycle;Max_cycle;Signal;HPM_P1;HPM_P2
2023/06/06 00:01:57;;;;;;;3.17;2.85;;;;;17.40;98644.00;;;;5055843;28;20462;-65
2023/06/06 00:04:24;;;;;;;3.47;2.80;;;;;17.30;98639.00;;;;5054504;28;20060;-65
2023/06/06 00:06:52;;;;;;;3.60;2.83;;;;;17.30;98638.00;;;;5055722;28;20041;-64
2023/06/06 00:09:19;;;;;;;5.43;3.05;;;;;17.20;98641.00;;;;5054602;28;20052;-64
2023/06/06 00:11:48;;;;;;;3.72;2.85;;;;;17.10;98637.00;;;;5055682;28;20087;-64
2023/06/06 00:14:18;;;;;;;3.58;2.78;;;;;17.10;98639.00;;;;5054112;28;20502;-64
2023/06/06 00:16:49;;;;;;;3.30;2.72;;;;;17.10;98635.00;;;;5055312;28;20051;-65
2023/06/06 00:19:20;;;;;;;6.35;3.05;;;;;17.10;98636.00;;;;5055003;28;20393;-63
2023/06/06 00:21:47;;;;;;;4.95;2.92;;;;;17.10;98632.00;;;;5055329;28;20049;-64
2023/06/06 00:24:15;;;;;;;3.67;2.63;;;;;17.10;98634.00;;;;5053839;28;20051;-64
2023/06/06 00:26:42;;;;;;;5.10;2.70;;;;;17.20;98633.00;;;;5053695;28;20045;-64
2023/06/06 00:29:09;;;;;;;6.35;3.45;;;;;17.20;98636.00;;;;5037268;28;20714;-62
2023/06/06 00:31:35;;;;;;;4.65;2.78;;;;;17.10;98633.00;;;;5055043;28;20502;-64
2023/06/06 00:34:02;;;;;;;4.72;2.70;;;;;17.10;98631.00;;;;5054121;28;20080;-64
2023/06/06 00:36:29;;;;;;;3.55;2.55;;;;;16.80;98628.00;;;;5053732;28;20076;-64
2023/06/06 00:38:55;;;;;;;3.78;2.58;;;;;16.70;98631.00;;;;5053179;28;20049;-64
2023/06/06 00:41:23;;;;;;;4.65;3.00;;;;;16.70;98619.00;;;;5054492;28;20054;-63
2023/06/06 00:43:50;;;;;;;3.67;2.95;;;;;16.60;98630.00;;;;5054563;28;20502;-65
2023/06/06 00:46:17;;;;;;;6.03;3.42;;;;;16.50;98631.00;;;;5053679;28;20102;-64
2023/06/06 00:48:45;;;;;;;5.03;2.95;;;;;16.50;98632.00;;;;5053509;28;20037;-64
2023/06/06 00:51:13;;;;;;;5.03;3.35;;;;;16.60;98632.00;;;;5053053;28;20410;-64
2023/06/06 00:53:39;;;;;;;6.32;3.00;;;;;16.80;98630.00;;;;5053180;28;20107;-64
2023/06/06 00:56:06;;;;;;;3.70;2.92;;;;;16.70;98635.00;;;;5054264;28;20076;-63
2023/06/06 00:58:34;;;;;;;5.45;3.38;;;;;16.70;98631.00;;;;5052961;28;20506;-64
2023/06/06 01:01:04;;;;;;;4.00;3.15;;;;;16.60;98637.00;;;;5052976;28;20049;-64
2023/06/06 01:03:32;;;;;;;4.65;3.13;;;;;16.60;98639.00;;;;5053089;28;20045;-64
2023/06/06 01:05:59;;;;;;;6.10;2.95;;;;;16.60;98632.00;;;;5054241;28;20045;-64
2023/06/06 01:08:25;;;;;;;4.03;2.85;;;;;16.50;98624.00;;;;5051746;28;20076;-64
2023/06/06 01:10:55;;;;;;;8.80;3.05;;;;;16.40;98626.00;;;;5052828;28;20041;-64
2023/06/06 01:13:35;;;;;;;3.70;2.45;;;;;16.50;98638.00;;;;5053035;28;20041;-64
2023/06/06 01:16:06;;;;;;;4.32;3.30;;;;;16.40;98639.00;;;;5054046;28;20087;-65
2023/06/06 01:18:33;;;;;;;3.47;2.95;;;;;16.40;98640.00;;;;5053950;28;20045;-65
2023/06/06 01:21:00;;;;;;;4.13;3.00;;;;;16.40;98637.00;;;;5052133;28;20090;-64
2023/06/06 01:23:30;;;;;;;4.55;2.55;;;;;16.20;98634.00;;;;5036099;28;20087;-62
2023/06/06 01:25:57;;;;;;;6.50;3.90;;;;;16.00;98631.00;;;;5053367;28;20490;-63
2023/06/06 01:28:25;;;;;;;5.28;3.40;;;;;16.00;98639.00;;;;5054141;28;20128;-64
2023/06/06 01:30:51;;;;;;;5.93;3.17;;;;;16.10;98634.00;;;;5035315;28;20053;-64
2023/06/06 01:33:32;;;;;;;5.70;2.97;;;;;16.20;98635.00;;;;5053910;28;20041;-64
2023/06/06 01:36:08;;;;;;;5.20;3.58;;;;;16.20;98640.00;;;;5052343;28;20175;-64
2023/06/06 01:38:43;;;;;;;5.28;3.03;;;;;16.10;98636.00;;;;5052414;28;20107;-64
2023/06/06 01:41:12;;;;;;;4.65;3.08;;;;;16.00;98635.00;;;;5035531;28;20079;-62
2023/06/06 01:43:40;;;;;;;4.80;3.00;;;;;15.90;98637.00;;;;5052387;28;20040;-64
2023/06/06 01:46:08;;;;;;;5.93;3.08;;;;;15.90;98632.00;;;;5061333;28;20052;-63
2023/06/06 01:48:36;;;;;;;4.78;2.97;;;;;15.90;98642.00;;;;5047410;28;20072;-63
2023/06/06 01:51:03;;;;;;;4.70;2.75;;;;;15.90;98641.00;;;;5041422;28;20045;-62
2023/06/06 01:53:30;;;;;;;4.38;2.83;;;;;15.90;98646.00;;;;5035721;28;20056;-63
2023/06/06 01:55:56;;;;;;;4.82;3.13;;;;;15.90;98644.00;;;;5052003;28;20437;-63
2023/06/06 01:58:23;;;;;;;4.88;2.80;;;;;15.80;98646.00;;;;5051836;28;20047;-64
2023/06/06 02:00:50;;;;;;;3.75;3.15;;;;;15.80;98652.00;;;;5051986;28;20044;-63
2023/06/06 02:03:17;;;;;;;6.05;3.45;;;;;15.80;98651.00;;;;5052128;28;20041;-65
2023/06/06 02:05:45;;;;;;;4.30;3.45;;;;;15.90;98646.00;;;;5051701;28;20052;-64
2023/06/06 02:08:12;;;;;;;4.72;3.00;;;;;15.90;98644.00;;;;5052805;28;20514;-63
2023/06/06 02:10:39;;;;;;;4.65;3.10;;;;;15.80;98648.00;;;;5052722;28;20047;-64
2023/06/06 02:13:06;;;;;;;4.63;3.45;;;;;15.80;98649.00;;;;5035848;28;20049;-65
2023/06/06 02:15:33;;;;;;;4.20;2.97;;;;;15.70;98642.00;;;;5053270;28;20044;-64
2023/06/06 02:17:59;;;;;;;4.82;3.00;;;;;15.60;98650.00;;;;5053525;28;20076;-65
2023/06/06 02:20:28;;;;;;;3.85;3.28;;;;;15.60;98654.00;;;;5052769;28;20048;-65
2023/06/06 02:22:55;;;;;;;5.60;3.03;;;;;15.50;98646.00;;;;5053373;28;20045;-65
2023/06/06 02:25:23;;;;;;;3.40;3.10;;;;;15.50;98658.00;;;;5052054;28;20118;-64
2023/06/06 02:27:50;;;;;;;3.83;3.13;;;;;15.50;98649.00;;;;5053285;28;20045;-63
2023/06/06 02:30:17;;;;;;;5.00;3.20;;;;;15.50;98654.00;;;;5052860;28;20040;-63
2023/06/06 02:32:46;;;;;;;3.90;3.50;;;;;15.40;98654.00;;;;5051558;28;20414;-64
2023/06/06 02:35:15;;;;;;;3.47;3.15;;;;;15.20;98655.00;;;;5052857;28;20041;-64
2023/06/06 02:37:42;;;;;;;4.32;3.55;;;;;15.20;98656.00;;;;5051350;28;20056;-65
2023/06/06 02:40:10;;;;;;;4.22;3.10;;;;;15.30;98653.00;;;;5034686;28;20498;-65
2023/06/06 02:42:38;;;;;;;3.85;2.80;;;;;15.40;98656.00;;;;5051506;28;20494;-63
2023/06/06 02:45:08;;;;;;;4.55;3.05;;;;;15.50;98648.00;;;;5051004;28;20049;-65
2023/06/06 02:47:35;;;;;;;4.88;3.33;;;;;15.50;98656.00;;;;5051211;28;20045;-63
2023/06/06 02:50:03;;;;;;;3.88;3.10;;;;;15.40;98652.00;;;;5051927;28;20037;-65
2023/06/06 02:52:32;;;;;;;4.75;3.25;;;;;15.40;98655.00;;;;5051065;28;20051;-65
2023/06/06 02:54:59;;;;;;;5.07;3.22;;;;;15.30;98653.00;;;;5052248;28;20090;-66
2023/06/06 02:57:26;;;;;;;5.82;3.38;;;;;15.10;98654.00;;;;5050802;28;20131;-64
2023/06/06 02:59:53;;;;;;;5.50;3.15;;;;;15.10;98657.00;;;;5050513;28;20079;-64
2023/06/06 03:02:20;;;;;;;3.83;2.92;;;;;15.20;98656.00;;;;5050930;28;20044;-63
2023/06/06 03:04:46;;;;;;;3.22;2.72;;;;;15.30;98653.00;;;;5050631;28;20045;-64
2023/06/06 03:07:13;;;;;;;3.65;2.95;;;;;15.30;98662.00;;;;5052193;28;20397;-63
2023/06/06 03:09:40;;;;;;;5.20;3.63;;;;;15.20;98659.00;;;;5051879;28;20555;-64
2023/06/06 03:12:11;;;;;;;4.68;3.58;;;;;15.20;98662.00;;;;5050842;28;20056;-64
2023/06/06 03:14:38;;;;;;;5.03;3.28;;;;;15.20;98662.00;;;;5050874;28;20060;-64
2023/06/06 03:17:24;;;;;;;6.57;3.75;;;;;15.10;98664.00;;;;5050484;28;20106;-64
2023/06/06 03:19:51;;;;;;;3.53;3.13;;;;;15.10;98669.00;;;;5050263;28;20041;-64
2023/06/06 03:22:18;;;;;;;8.05;3.22;;;;;15.00;98666.00;;;;5050325;28;20116;-64
2023/06/06 03:24:49;;;;;;;7.68;3.65;;;;;14.80;98668.00;;;;5050511;28;20144;-64
2023/06/06 03:27:17;;;;;;;5.55;3.40;;;;;14.80;98661.00;;;;5050548;28;20045;-64
2023/06/06 03:29:44;;;;;;;5.18;3.80;;;;;14.80;98663.00;;;;5050241;28;20087;-63
2023/06/06 03:32:11;;;;;;;6.20;4.22;;;;;14.70;98672.00;;;;5051968;28;20052;-63
2023/06/06 03:34:39;;;;;;;7.25;3.65;;;;;14.60;98671.00;;;;5054532;28;20045;-63
2023/06/06 03:37:06;;;;;;;4.18;3.75;;;;;14.60;98674.00;;;;5054288;28;20148;-64
2023/06/06 03:39:34;;;;;;;5.93;4.03;;;;;14.80;98670.00;;;;5037840;28;20045;-63
2023/06/06 03:42:02;;;;;;;3.92;3.53;;;;;14.80;98670.00;;;;5054398;28;20486;-64
2023/06/06 03:44:29;;;;;;;5.05;3.83;;;;;14.90;98676.00;;;;5054418;28;20045;-63
2023/06/06 03:46:55;;;;;;;3.28;2.95;;;;;14.80;98682.00;;;;5037837;28;20055;-64
2023/06/06 03:49:22;;;;;;;4.82;3.15;;;;;14.70;98670.00;;;;5054343;28;20516;-63
2023/06/06 03:51:49;;;;;;;5.15;3.78;;;;;14.70;98670.00;;;;5055641;28;20119;-64
2023/06/06 03:54:16;;;;;;;6.35;3.75;;;;;14.90;98676.00;;;;5055081;28;20498;-65
2023/06/06 03:56:43;;;;;;;3.75;3.30;;;;;14.90;98667.00;;;;5060654;28;20044;-65
2023/06/06 03:59:13;;;;;;;4.65;3.17;;;;;15.00;98675.00;;;;5061376;28;20093;-65
2023/06/06 04:01:41;;;;;;;4.40;3.70;;;;;15.00;98679.00;;;;5039485;28;20049;-64
2023/06/06 04:04:09;;;;;;;6.82;4.75;;;;;14.90;98665.00;;;;5054449;28;20072;-65
2023/06/06 04:06:37;;;;;;;10.52;7.18;;;;;15.00;98675.00;;;;5055383;28;20120;-64
2023/06/06 04:09:08;;;;;;;4.35;3.63;;;;;15.00;98667.00;;;;5054028;28;20045;-64
2023/06/06 04:11:35;;;;;;;6.15;3.90;;;;;15.10;98669.00;;;;5054249;28;20041;-63
2023/06/06 04:14:03;;;;;;;5.50;3.60;;;;;15.10;98671.00;;;;5037686;28;20072;-63
2023/06/06 04:16:30;;;;;;;4.22;3.15;;;;;15.10;98675.00;;;;5037333;28;20094;-64
2023/06/06 04:18:57;;;;;;;8.80;4.18;;;;;15.20;98682.00;;;;5037315;28;20421;-64
2023/06/06 04:21:24;;;;;;;7.53;3.78;;;;;15.30;98677.00;;;;5053266;28;20067;-65
2023/06/06 04:23:53;;;;;;;5.65;3.88;;;;;15.40;98679.00;;;;5054611;28;20049;-64
2023/06/06 04:26:25;;;;;;;6.45;4.05;;;;;15.40;98683.00;;;;5053759;28;20086;-64
2023/06/06 04:28:53;;;;;;;5.90;3.25;;;;;15.40;98682.00;;;;5036766;28;20057;-65
2023/06/06 04:31:21;;;;;;;7.30;3.97;;;;;15.50;98686.00;;;;5053423;28;20045;-65
2023/06/06 04:33:53;;;;;;;8.05;5.38;;;;;15.40;98683.00;;;;5054796;28;20041;-65
2023/06/06 04:36:25;;;;;;;5.68;3.78;;;;;15.60;98687.00;;;;5037687;28;20072;-65
2023/06/06 04:38:52;;;;;;;5.75;3.90;;;;;15.50;98686.00;;;;5053249;28;20456;-64
2023/06/06 04:41:20;;;;;;;6.00;4.75;;;;;15.70;98681.00;;;;5053497;28;20044;-63
2023/06/06 04:44:08;;;;;;;8.85;5.47;;;;;15.80;98687.00;;;;5054631;28;20036;-63
2023/06/06 04:46:36;;;;;;;9.57;6.60;;;;;16.00;98679.00;;;;5036823;28;20073;-63
2023/06/06 04:49:02;;;;;;;5.72;4.38;;;;;16.10;98683.00;;;;5036824;28;20072;-64
2023/06/06 04:51:29;;;;;;;6.85;3.83;;;;;16.00;98687.00;;;;5053597;28;20045;-64
2023/06/06 04:54:00;;;;;;;6.57;4.63;;;;;16.00;98690.00;;;;5055212;28;20049;-64
2023/06/06 04:56:30;;;;;;;6.45;4.07;;;;;16.10;98682.00;;;;5060082;28;20064;-63
2023/06/06 04:59:04;;;;;;;4.40;3.70;;;;;16.10;98689.00;;;;5074093;28;20048;-65
2023/06/06 05:01:41;;;;;;;5.25;4.10;;;;;16.20;98691.00;;;;5074069;28;20047;-64
2023/06/06 05:04:07;;;;;;;8.68;4.85;;;;;16.30;98692.00;;;;5077610;28;20051;-63
2023/06/06 05:06:34;;;;;;;7.85;3.95;;;;;16.30;98692.00;;;;5076587;28;20045;-64
2023/06/06 05:09:03;;;;;;;6.78;4.40;;;;;16.40;98688.00;;;;5074339;28;20052;-64
2023/06/06 05:11:30;;;;;;;6.50;4.43;;;;;16.40;98683.00;;;;5073742;28;20044;-64
2023/06/06 05:13:57;;;;;;;7.07;4.75;;;;;16.60;98686.00;;;;5073896;28;20468;-64
2023/06/06 05:16:23;;;;;;;6.85;3.92;;;;;16.60;98679.00;;;;5071213;28;20136;-62
2023/06/06 05:18:50;;;;;;;8.80;4.55;;;;;16.70;98682.00;;;;5064070;28;20056;-66
2023/06/06 05:21:18;;;;;;;5.68;4.25;;;;;16.80;98679.00;;;;5054001;28;20043;-64
2023/06/06 05:23:45;;;;;;;8.57;4.68;;;;;16.80;98683.00;;;;5053808;28;20068;-64
2023/06/06 05:26:12;;;;;;;8.38;4.07;;;;;16.90;98682.00;;;;5054118;28;20569;-63
2023/06/06 05:28:39;;;;;;;4.22;3.83;;;;;17.10;98680.00;;;;5054351;28;20047;-63
2023/06/06 05:31:07;;;;;;;5.18;4.03;;;;;17.20;98690.00;;;;5054054;28;20040;-63
2023/06/06 05:33:39;;;;;;;7.97;4.57;;;;;17.50;98690.00;;;;5053356;28;20041;-63
2023/06/06 05:36:06;;;;;;;5.40;4.20;;;;;17.50;98690.00;;;;5053558;28;20045;-64
2023/06/06 05:38:33;;;;;;;8.23;4.22;;;;;17.60;98698.00;;;;5053468;28;20052;-64
2023/06/06 05:40:59;;;;;;;7.35;4.85;;;;;17.70;98692.00;;;;5053395;28;20041;-63
2023/06/06 05:43:27;;;;;;;5.85;4.50;;;;;17.60;98693.00;;;;5052526;28;20073;-63
2023/06/06 05:45:54;;;;;;;8.70;5.45;;;;;17.80;98693.00;;;;5052197;28;20048;-64
2023/06/06 05:48:21;;;;;;;8.18;5.35;;;;;17.90;98697.00;;;;5056668;28;20127;-64
2023/06/06 05:50:48;;;;;;;8.73;4.68;;;;;17.90;98703.00;;;;5065438;28;20041;-64
2023/06/06 05:53:14;;;;;;;6.15;4.78;;;;;17.90;98709.00;;;;5065778;28;20100;-63
2023/06/06 05:55:41;;;;;;;5.97;4.70;;;;;18.00;98705.00;;;;5053405;28;20169;-63
2023/06/06 05:58:08;;;;;;;8.30;4.88;;;;;18.10;98710.00;;;;5053435;28;20116;-63
2023/06/06 06:00:35;;;;;;;6.93;4.57;;;;;18.30;98710.00;;;;5053115;28;20037;-63
2023/06/06 06:03:03;;;;;;;7.78;4.65;;;;;18.40;98711.00;;;;5052743;28;20052;-64
2023/06/06 06:05:30;;;;;;;5.75;4.82;;;;;18.50;98704.00;;;;5053577;28;20128;-64
2023/06/06 06:08:00;;;;;;;6.20;4.80;;;;;18.70;98706.00;;;;5052936;28;20123;-64
2023/06/06 06:10:28;;;;;;;8.50;4.65;;;;;18.90;98711.00;;;;5052961;28;20490;-65
2023/06/06 06:12:55;;;;;;;7.43;4.78;;;;;19.10;98716.00;;;;5053531;28;20057;-65
2023/06/06 06:15:23;;;;;;;7.28;4.88;;;;;19.20;98709.00;;;;5052603;28;20052;-64
2023/06/06 06:17:50;;;;;;;8.30;5.32;;;;;19.20;98703.00;;;;5052162;28;20045;-64
2023/06/06 06:20:19;;;;;;;8.30;4.80;;;;;19.40;98708.00;;;;5054046;28;20041;-64
2023/06/06 06:22:46;;;;;;;7.03;5.03;;;;;19.60;98711.00;;;;5036342;28;20260;-62
2023/06/06 06:25:13;;;;;;;6.60;4.85;;;;;19.60;98715.00;;;;5054440;28;20132;-63
2023/06/06 06:27:41;;;;;;;7.75;4.82;;;;;19.70;98718.00;;;;5053162;28;20102;-63
2023/06/06 06:30:09;;;;;;;8.70;4.40;;;;;19.80;98715.00;;;;5051353;28;20084;-63
2023/06/06 06:32:38;;;;;;;5.78;4.82;;;;;20.00;98714.00;;;;5051187;28;20044;-62
2023/06/06 06:35:11;;;;;;;6.50;4.28;;;;;20.10;98715.00;;;;5052632;28;20383;-63
2023/06/06 06:37:39;;;;;;;6.85;5.10;;;;;20.20;98707.00;;;;5051412;28;20045;-62
2023/06/06 06:40:09;;;;;;;7.00;4.60;;;;;20.30;98721.00;;;;5052784;28;20047;-62
2023/06/06 06:42:39;;;;;;;7.97;4.38;;;;;20.40;98716.00;;;;5053370;28;20074;-62
2023/06/06 06:45:29;;;;;;;7.03;4.15;;;;;20.60;98715.00;;;;5051407;28;20083;-63
2023/06/06 06:47:56;;;;;;;6.40;4.15;;;;;20.60;98718.00;;;;5051364;28;20049;-63
2023/06/06 06:50:22;;;;;;;4.80;3.72;;;;;20.60;98721.00;;;;5052160;28;20091;-63
2023/06/06 06:52:49;;;;;;;8.32;3.95;;;;;20.60;98727.00;;;;5051349;28;20463;-64
2023/06/06 06:55:16;;;;;;;7.13;3.70;;;;;20.70;98728.00;;;;5052142;28;20120;-63
2023/06/06 06:57:43;;;;;;;6.32;4.10;;;;;20.90;98731.00;;;;5052091;28;20460;-64
2023/06/06 07:00:12;;;;;;;7.80;3.70;;;;;20.90;98721.00;;;;5051704;28;20365;-63
2023/06/06 07:02:39;;;;;;;5.68;4.00;;;;;21.00;98725.00;;;;5052222;28;20415;-62
2023/06/06 07:05:07;;;;;;;5.00;4.15;;;;;21.00;98727.00;;;;5050766;28;20036;-63
2023/06/06 07:07:33;;;;;;;6.53;4.20;;;;;21.10;98727.00;;;;5051015;28;20040;-65
2023/06/06 07:10:00;;;;;;;5.03;4.18;;;;;21.30;98734.00;;;;5050526;28;20115;-64
2023/06/06 07:12:27;;;;;;;6.03;4.07;;;;;21.40;98732.00;;;;5050821;28;20417;-64
2023/06/06 07:14:53;;;;;;;5.88;4.28;;;;;21.50;98734.00;;;;5053054;28;20738;-63
2023/06/06 07:17:21;;;;;;;5.75;4.00;;;;;21.50;98732.00;;;;5050797;28;20103;-65
2023/06/06 07:19:47;;;;;;;4.10;3.67;;;;;21.60;98728.00;;;;5051876;28;20065;-64
2023/06/06 07:22:14;;;;;;;5.00;4.28;;;;;21.70;98726.00;;;;5034044;28;20083;-64
2023/06/06 07:24:41;;;;;;;4.53;3.85;;;;;22.00;98732.00;;;;5050796;28;20469;-64
2023/06/06 07:27:08;;;;;;;3.60;3.13;;;;;22.00;98729.00;;;;5051771;28;20045;-64
2023/06/06 07:29:36;;;;;;;7.72;3.38;;;;;22.00;98732.00;;;;5051853;28;20037;-64
2023/06/06 07:32:04;;;;;;;4.47;3.42;;;;;22.00;98730.00;;;;5052257;28;20048;-63
2023/06/06 07:34:30;;;;;;;4.68;3.60;;;;;22.10;98725.00;;;;5052262;28;20069;-63
2023/06/06 07:36:58;;;;;;;5.97;3.50;;;;;22.10;98724.00;;;;5051634;28;20063;-63
2023/06/06 07:39:24;;;;;;;3.67;3.30;;;;;22.30;98729.00;;;;5052069;28;20102;-64
2023/06/06 07:41:51;;;;;;;4.10;3.33;;;;;22.40;98729.00;;;;5051930;28;20037;-64
2023/06/06 07:44:18;;;;;;;3.50;3.20;;;;;22.50;98728.00;;;;5050770;28;20562;-64
2023/06/06 07:46:45;;;;;;;4.85;3.40;;;;;22.60;98724.00;;;;5051916;28;20049;-63
2023/06/06 07:49:12;;;;;;;3.63;3.33;;;;;22.70;98728.00;;;;5050735;28;20037;-62
2023/06/06 07:51:38;;;;;;;5.03;3.13;;;;;22.90;98730.00;;;;5051121;28;20048;-63
2023/06/06 07:54:05;;;;;;;4.05;3.53;;;;;22.90;98723.00;;;;5052738;28;20490;-63
2023/06/06 07:56:36;;;;;;;5.78;4.75;;;;;22.90;98725.00;;;;5052073;28;20032;-63
2023/06/06 07:59:03;;;;;;;4.35;3.55;;;;;22.90;98731.00;;;;5053450;28;20223;-64
2023/06/06 08:01:31;;;;;;;3.80;3.20;;;;;23.00;98721.00;;;;5057124;28;20533;-64
2023/06/06 08:03:59;;;;;;;4.20;3.45;;;;;23.10;98723.00;;;;5071067;28;20094;-64
2023/06/06 08:06:27;;;;;;;4.00;3.10;;;;;23.30;98724.00;;;;5071282;28;20032;-62
2023/06/06 08:08:54;;;;;;;4.32;3.30;;;;;23.40;98723.00;;;;5071845;28;20068;-63
2023/06/06 08:11:21;;;;;;;4.43;3.17;;;;;23.60;98721.00;;;;5070349;28;20444;-64
2023/06/06 08:13:48;;;;;;;3.25;2.88;;;;;23.70;98723.00;;;;5070217;28;20045;-63
2023/06/06 08:16:14;;;;;;;5.25;3.10;;;;;23.80;98725.00;;;;5071334;28;20044;-63
2023/06/06 08:18:41;;;;;;;3.00;2.70;;;;;23.80;98725.00;;;;5073715;28;20127;-63
2023/06/06 08:21:07;;;;;;;3.90;3.47;;;;;23.90;98724.00;;;;5074327;28;20036;-64
2023/06/06 08:23:34;;;;;;;4.40;3.25;;;;;24.00;98723.00;;;;5074891;28;20131;-63
2023/06/06 08:26:01;;;;;;;4.35;3.25;;;;;24.10;98731.00;;;;5074804;28;20127;-63
2023/06/06 08:28:28;;;;;;;3.50;3.20;;;;;24.10;98718.00;;;;5074744;28;20119;-63
2023/06/06 08:30:55;;;;;;;4.05;3.15;;;;;24.10;98723.00;;;;5073272;28;20040;-63
2023/06/06 08:33:22;;;;;;;4.03;3.33;;;;;24.10;98720.00;;;;5074812;28;20076;-63
2023/06/06 08:35:49;;;;;;;5.15;2.95;;;;;24.00;98715.00;;;;5074624;28;20144;-63
2023/06/06 08:38:15;;;;;;;4.40;3.10;;;;;24.10;98711.00;;;;5073485;28;20123;-62
2023/06/06 08:40:43;;;;;;;4.78;3.40;;;;;24.20;98713.00;;;;5074639;28;20079;-63
2023/06/06 08:43:12;;;;;;;3.85;3.00;;;;;24.30;98710.00;;;;5074806;28;20124;-63
2023/06/06 08:45:43;;;;;;;3.30;2.70;;;;;24.30;98715.00;;;;5074621;28;20127;-64
2023/06/06 08:48:14;;;;;;;4.53;2.95;;;;;24.30;98718.00;;;;5074601;28;20281;-62
2023/06/06 08:50:42;;;;;;;3.22;2.92;;;;;24.40;98712.00;;;;5074398;28;20040;-63
2023/06/06 08:53:10;;;;;;;3.45;2.63;;;;;24.60;98718.00;;;;5074512;28;20053;-64
2023/06/06 08:55:37;;;;;;;5.53;3.35;;;;;24.70;98722.00;;;;5074505;28;20044;-64
2023/06/06 08:58:04;;;;;;;3.03;2.72;;;;;24.70;98723.00;;;;5074379;28;20040;-63
2023/06/06 09:00:31;;;;;;;3.17;2.60;;;;;24.80;98714.00;;;;5074233;28;20037;-64
2023/06/06 09:02:59;;;;;;;3.08;2.83;;;;;24.90;98726.00;;;;5074531;28;20046;-64
2023/06/06 09:05:26;;;;;;;3.90;3.20;;;;;25.10;98729.00;;;;5074451;28;20037;-64
2023/06/06 09:07:53;;;;;;;3.42;3.13;;;;;25.10;98731.00;;;;5073287;28;20102;-64
2023/06/06 09:10:20;;;;;;;3.80;3.25;;;;;25.10;98739.00;;;;5072762;28;20144;-64
2023/06/06 09:12:47;;;;;;;5.93;2.70;;;;;25.10;98735.00;;;;5074310;28;20041;-64
2023/06/06 09:15:14;;;;;;;3.88;3.30;;;;;25.10;98733.00;;;;5074140;28;20537;-63
2023/06/06 09:17:44;;;;;;;4.63;3.15;;;;;25.10;98733.00;;;;5074326;28;20054;-63
2023/06/06 09:20:15;;;;;;;4.22;3.15;;;;;25.10;98739.00;;;;5072726;28;20056;-62
2023/06/06 09:22:49;;;;;;;5.82;3.45;;;;;25.00;98734.00;;;;5073961;28;20397;-65
2023/06/06 09:25:20;;;;;;;3.25;2.67;;;;;25.00;98733.00;;;;5074312;28;20067;-64
2023/06/06 09:27:52;;;;;;;5.18;3.40;;;;;25.20;98734.00;;;;5074302;28;20426;-62
2023/06/06 09:30:23;;;;;;;3.53;3.05;;;;;25.20;98731.00;;;;5073377;28;20040;-63
2023/06/06 09:33:02;;;;;;;4.00;3.00;;;;;25.40;98731.00;;;;5074434;28;20524;-65
2023/06/06 09:35:42;;;;;;;3.63;2.60;;;;;25.60;98725.00;;;;5076115;28;20502;-63
2023/06/06 09:38:17;;;;;;;4.32;3.40;;;;;25.60;98724.00;;;;5077958;28;20060;-62
2023/06/06 09:40:50;;;;;;;6.72;3.10;;;;;25.50;98728.00;;;;5076274;28;20103;-63
2023/06/06 09:43:24;;;;;;;3.92;3.13;;;;;25.60;98726.00;;;;5075064;28;20077;-64
2023/06/06 09:45:52;;;;;;;3.97;3.17;;;;;25.80;98731.00;;;;5073908;28;20457;-63
2023/06/06 09:48:21;;;;;;;4.38;3.22;;;;;25.80;98731.00;;;;5072738;28;20123;-63
2023/06/06 09:50:48;;;;;;;4.25;3.30;;;;;25.80;98737.00;;;;5072563;28;20118;-62
2023/06/06 09:53:15;;;;;;;4.70;2.88;;;;;25.90;98731.00;;;;5074292;28;20045;-63
2023/06/06 09:55:43;;;;;;;6.18;3.00;;;;;25.80;98728.00;;;;5074646;28;20041;-62
2023/06/06 09:58:14;;;;;;;5.28;3.20;;;;;25.70;98727.00;;;;5074307;28;20044;-62
2023/06/06 10:00:43;;;;;;;3.50;2.90;;;;;25.80;98723.00;;;;5074697;28;20123;-62
2023/06/06 10:03:18;;;;;;;4.47;3.00;;;;;25.90;98721.00;;;;5074594;28;20068;-62
2023/06/06 10:05:46;;;;;;;4.85;3.08;;;;;26.20;98727.00;;;;5074383;28;20040;-64
2023/06/06 10:08:14;;;;;;;5.32;3.55;;;;;26.30;98724.00;;;;5074434;28;20080;-66
2023/06/06 10:10:43;;;;;;;3.42;3.13;;;;;26.30;98720.00;;;;5073667;28;20041;-66
2023/06/06 10:13:12;;;;;;;4.47;2.85;;;;;26.30;98721.00;;;;5072440;28;20124;-65
2023/06/06 10:15:41;;;;;;;7.53;3.05;;;;;26.20;98718.00;;;;5072599;28;20079;-64
2023/06/06 10:18:14;;;;;;;3.63;2.70;;;;;26.30;98707.00;;;;5073350;28;20036;-63
2023/06/06 10:20:46;;;;;;;4.30;3.53;;;;;26.50;98714.00;;;;5071788;28;20049;-64
2023/06/06 10:23:14;;;;;;;4.30;3.08;;;;;26.50;98719.00;;;;5072972;28;20037;-63
2023/06/06 10:25:42;;;;;;;3.13;2.83;;;;;26.40;98700.00;;;;5071530;28;20041;-65
2023/06/06 10:28:17;;;;;;;4.07;3.03;;;;;26.50;98707.00;;;;5054739;28;20045;-63
2023/06/06 10:30:43;;;;;;;7.13;3.28;;;;;26.60;98708.00;;;;5072437;28;20382;-63
2023/06/06 10:33:17;;;;;;;5.13;3.42;;;;;26.60;98709.00;;;;5071393;28;20549;-64
2023/06/06 10:35:46;;;;;;;4.43;3.03;;;;;26.70;98704.00;;;;5071611;28;20049;-63
2023/06/06 10:38:15;;;;;;;5.38;3.58;;;;;26.90;98711.00;;;;5072716;28;20044;-65
2023/06/06 10:40:49;;;;;;;4.50;3.17;;;;;26.90;98704.00;;;;5072200;28;20493;-63
2023/06/06 10:43:34;;;;;;;3.35;3.05;;;;;27.00;98696.00;;;;5072387;28;20072;-64
2023/06/06 10:46:02;;;;;;;5.35;3.10;;;;;27.10;98694.00;;;;5072352;28;20053;-64
2023/06/06 10:48:56;;;;;;;5.22;3.45;;;;;27.30;98702.00;;;;5071466;28;20044;-63
2023/06/06 10:51:39;;;;;;;3.55;3.15;;;;;27.20;98704.00;;;;5051948;28;20462;-63
2023/06/06 10:54:22;;;;;;;4.53;3.38;;;;;27.10;98700.00;;;;5071113;28;20419;-65
2023/06/06 10:56:54;;;;;;;3.53;3.22;;;;;27.20;98704.00;;;;5070915;28;20044;-64
2023/06/06 10:59:33;;;;;;;4.13;3.30;;;;;27.10;98698.00;;;;5071948;28;20040;-63
2023/06/06 11:02:10;;;;;;;6.28;3.10;;;;;27.20;98706.00;;;;5071398;28;20498;-64
2023/06/06 11:04:38;;;;;;;9.32;3.33;;;;;27.20;98701.00;;;;5072242;28;20064;-63
2023/06/06 11:07:15;;;;;;;3.17;2.90;;;;;27.20;98701.00;;;;5070726;28;20052;-64
2023/06/06 11:09:42;;;;;;;4.53;3.72;;;;;27.40;98694.00;;;;5070807;28;20043;-64
2023/06/06 11:12:13;;;;;;;5.28;3.08;;;;;27.70;98694.00;;;;5072174;28;20036;-63
2023/06/06 11:15:08;;;;;;;3.55;2.75;;;;;27.90;98695.00;;;;5072210;28;20444;-63
2023/06/06 11:17:53;;;;;;;5.50;2.97;;;;;28.00;98696.00;;;;5070834;28;20040;-63
2023/06/06 11:20:27;;;;;;;3.72;2.60;;;;;28.00;98693.00;;;;5053873;28;20045;-64
2023/06/06 11:23:04;;;;;;;4.40;3.13;;;;;27.90;98681.00;;;;5054154;28;20117;-62
2023/06/06 11:25:34;;;;;;;3.70;2.65;;;;;27.80;98684.00;;;;5071937;28;20437;-62
2023/06/06 11:28:02;;;;;;;3.40;2.92;;;;;27.80;98684.00;;;;5071910;28;20513;-62
2023/06/06 11:30:34;;;;;;;4.60;2.92;;;;;27.80;98689.00;;;;5071612;28;20040;-62
2023/06/06 11:33:07;;;;;;;8.15;3.30;;;;;27.80;98679.00;;;;5071698;28;20040;-62
2023/06/06 11:35:38;;;;;;;5.57;3.20;;;;;27.90;98681.00;;;;5071979;28;20059;-63
2023/06/06 11:38:06;;;;;;;6.43;3.58;;;;;27.90;98681.00;;;;5070798;28;20514;-62
2023/06/06 11:40:32;;;;;;;4.97;3.20;;;;;27.90;98681.00;;;;5053756;28;20064;-63
2023/06/06 11:42:59;;;;;;;4.78;3.15;;;;;27.80;98683.00;;;;5071611;28;20053;-61
2023/06/06 11:45:27;;;;;;;5.97;2.97;;;;;28.00;98687.00;;;;5053921;28;20068;-61
2023/06/06 11:47:53;;;;;;;6.82;3.38;;;;;28.20;98684.00;;;;5070325;28;20087;-63
2023/06/06 11:50:39;;;;;;;5.65;3.20;;;;;28.20;98682.00;;;;5070093;28;20502;-62
2023/06/06 11:53:06;;;;;;;3.58;3.08;;;;;28.00;98679.00;;;;5071858;28;20037;-64
2023/06/06 11:55:36;;;;;;;5.70;3.40;;;;;27.90;98686.00;;;;5075326;28;20119;-63
2023/06/06 11:58:04;;;;;;;3.30;3.00;;;;;27.70;98682.00;;;;5075457;28;20041;-61
2023/06/06 12:00:31;;;;;;;5.00;3.47;;;;;27.40;98683.00;;;;5075413;28;20043;-62
2023/06/06 12:02:59;;;;;;;4.28;3.20;;;;;27.20;98683.00;;;;5075335;28;20505;-63
2023/06/06 12:05:26;;;;;;;6.75;3.30;;;;;27.10;98678.00;;;;5075225;28;20036;-64
2023/06/06 12:07:58;;;;;;;5.50;3.50;;;;;26.90;98670.00;;;;5057560;28;20044;-62
2023/06/06 12:10:30;;;;;;;4.00;3.28;;;;;26.80;98669.00;;;;5074887;28;20037;-62
2023/06/06 12:12:58;;;;;;;3.08;2.78;;;;;27.00;98670.00;;;;5057778;28;20098;-63
2023/06/06 12:15:43;;;;;;;3.90;2.80;;;;;27.20;98678.00;;;;5074185;28;20040;-63
2023/06/06 12:18:10;;;;;;;4.38;3.10;;;;;27.20;98681.00;;;;5075547;28;20055;-63
2023/06/06 12:20:41;;;;;;;5.63;3.20;;;;;27.10;98668.00;;;;5074063;28;20044;-63
2023/06/06 12:23:08;;;;;;;3.70;3.25;;;;;27.30;98663.00;;;;5057782;28;20067;-63
2023/06/06 12:25:35;;;;;;;4.40;3.50;;;;;27.40;98672.00;;;;5074900;28;20128;-63
2023/06/06 12:28:09;;;;;;;4.47;2.95;;;;;27.70;98676.00;;;;5075116;28;20489;-62